Time,TemperatureF,DewpointF,PressureIn,WindDirection,WindDirectionDegrees,WindSpeedMPH,WindSpeedGustMPH,Humidity,HourlyPrecipIn,Conditions,Clouds,dailyrainin,SoftwareType,DateUTC
2013-01-28 00:02:00,20.2,15.6,30.26,East,93,0.0,0.0,82,0.00,,,0.00,Wunderground v.1.15,2013-01-28 08:02:00,
2013-01-28 00:08:00,20.3,16.0,30.26,East,93,0.0,0.0,83,0.00,,,0.00,Wunderground v.1.15,2013-01-28 08:08:00,
2013-01-28 00:14:00,20.3,16.0,30.26,East,93,0.0,1.0,83,0.00,,,0.00,Wunderground v.1.15,2013-01-28 08:14:00,
2013-01-28 00:20:00,20.3,16.0,30.24,East,93,0.0,0.0,83,0.00,,,0.00,Wunderground v.1.15,2013-01-28 08:20:00,
2013-01-28 00:26:00,20.3,16.0,30.24,East,93,0.0,0.0,83,0.00,,,0.00,Wunderground v.1.15,2013-01-28 08:26:00,
2013-01-28 00:32:00,20.3,16.0,30.24,East,93,0.0,1.0,83,0.00,,,0.00,Wunderground v.1.15,2013-01-28 08:32:00,
2013-01-28 00:38:00,20.2,15.9,30.24,East,90,0.0,1.0,83,0.00,,,0.00,Wunderground v.1.15,2013-01-28 08:38:00,
2013-01-28 00:44:00,20.0,15.7,30.24,East,90,0.0,1.0,83,0.00,,,0.00,Wunderground v.1.15,2013-01-28 08:44:00,
2013-01-28 06:38:00,15.4,10.1,30.28,East,90,0.0,1.0,79,0.00,,,0.00,Wunderground v.1.15,2013-01-28 14:38:00,
2013-01-28 06:44:00,15.2,9.9,30.28,East,90,1.0,1.0,79,0.00,,,0.00,Wunderground v.1.15,2013-01-28 14:44:00,
2013-01-28 06:50:00,14.9,9.3,30.30,East,90,0.0,0.0,78,0.00,,,0.00,Wunderground v.1.15,2013-01-28 14:50:00,
2013-01-28 06:56:00,14.8,9.2,30.30,East,90,0.0,0.0,78,0.00,,,0.00,Wunderground v.1.15,2013-01-28 14:56:00,
2013-01-28 07:02:00,14.6,9.3,30.31,East,90,0.0,1.0,79,0.00,,,0.00,Wunderground v.1.15,2013-01-28 15:02:00,
2013-01-28 07:08:00,14.6,9.6,30.31,East,90,1.0,2.0,80,0.00,,,0.00,Wunderground v.1.15,2013-01-28 15:08:00,
2013-01-28 07:14:00,14.6,9.6,30.31,East,90,1.0,1.0,80,0.00,,,0.00,Wunderground v.1.15,2013-01-28 15:14:00,
2013-01-28 16:32:00,36.8,17.9,30.31,NE,49,0.0,1.0,46,0.00,,,0.00,Wunderground v.1.15,2013-01-29 00:32:00,
2013-01-28 16:38:00,36.8,19.9,30.31,SW,216,1.0,6.0,50,0.00,,,0.00,Wunderground v.1.15,2013-01-29 00:38:00,
2013-01-28 16:44:00,36.5,20.1,30.31,WSW,244,2.0,2.0,51,0.00,,,0.00,Wunderground v.1.15,2013-01-29 00:44:00,
2013-01-28 16:50:00,36.2,19.8,30.31,WSW,251,1.0,2.0,51,0.00,,,0.00,Wunderground v.1.15,2013-01-29 00:50:00,
2013-01-28 16:56:00,36.0,19.1,30.31,WSW,251,0.0,0.0,50,0.00,,,0.00,Wunderground v.1.15,2013-01-29 00:56:00,
2013-01-28 17:02:00,35.9,19.0,30.32,WSW,251,0.0,0.0,50,0.00,,,0.00,Wunderground v.1.15,2013-01-29 01:02:00,
2013-01-28 17:08:00,35.8,19.0,30.32,WSW,251,0.0,0.0,50,0.00,,,0.00,Wunderground v.1.15,2013-01-29 01:08:00,
2013-01-28 17:14:00,35.6,19.2,30.32,WSW,251,0.0,0.0,51,0.00,,,0.00,Wunderground v.1.15,2013-01-29 01:14:00,
2013-01-28 17:20:00,35.5,19.1,30.32,WSW,251,0.0,0.0,51,0.00,,,0.00,Wunderground v.1.15,2013-01-29 01:20:00,
2013-01-28 17:26:00,35.2,20.2,30.32,SE,126,0.0,1.0,54,0.00,,,0.00,Wunderground v.1.15,2013-01-29 01:26:00,
2013-01-28 19:00:00,32.4,23.0,30.37,ESE,119,2.0,2.0,68,0.00,,,0.00,Wunderground v.1.15,2013-01-29 03:00:00,
2013-01-28 19:06:00,32.4,23.4,30.37,ESE,114,2.0,2.0,69,0.00,,,0.00,Wunderground v.1.15,2013-01-29 03:06:00,
2013-01-28 19:12:00,32.2,23.2,30.37,ESE,113,2.0,6.0,69,0.00,,,0.00,Wunderground v.1.15,2013-01-29 03:12:00,
2013-01-28 19:18:00,32.1,22.7,30.36,ESE,113,1.0,6.0,68,0.00,,,0.00,Wunderground v.1.15,2013-01-29 03:18:00,
2013-01-28 19:24:00,31.9,22.2,30.36,ESE,112,1.0,2.0,67,0.00,,,0.00,Wunderground v.1.15,2013-01-29 03:24:00,
2013-01-28 19:30:00,31.8,22.1,30.36,East,93,3.0,3.0,67,0.00,,,0.00,Wunderground v.1.15,2013-01-29 03:30:00,
2013-01-28 19:36:00,31.8,22.4,30.36,East,93,2.0,3.0,68,0.00,,,0.00,Wunderground v.1.15,2013-01-29 03:36:00,
2013-01-28 19:42:00,31.6,21.9,30.36,East,93,0.0,1.0,67,0.00,,,0.00,Wunderground v.1.15,2013-01-29 03:42:00,
2013-01-28 19:48:00,31.5,21.4,30.36,East,93,1.0,1.0,66,0.00,,,0.00,Wunderground v.1.15,2013-01-29 03:48:00,
2013-01-28 19:54:00,31.5,21.1,30.36,East,93,1.0,2.0,65,0.00,,,0.00,Wunderground v.1.15,2013-01-29 03:54:00,
2013-01-28 20:00:00,31.5,21.4,30.36,East,93,0.0,0.0,66,0.00,,,0.00,Wunderground v.1.15,2013-01-29 04:00:00,
2013-01-28 20:06:00,31.5,21.1,30.36,ESE,107,1.0,2.0,65,0.00,,,0.00,Wunderground v.1.15,2013-01-29 04:06:00,
2013-01-28 20:12:00,31.5,21.8,30.36,ESE,117,2.0,4.0,67,0.00,,,0.00,Wunderground v.1.15,2013-01-29 04:12:00,
2013-01-28 20:18:00,31.5,21.8,30.33,ESE,107,2.0,4.0,67,0.00,,,0.00,Wunderground v.1.15,2013-01-29 04:18:00,
2013-01-28 20:24:00,31.5,21.8,30.33,ESE,107,2.0,4.0,67,0.00,,,0.00,Wunderground v.1.15,2013-01-29 04:24:00,
2013-01-28 20:30:00,31.3,21.6,30.33,East,96,3.0,3.0,67,0.00,,,0.00,Wunderground v.1.15,2013-01-29 04:30:00,
2013-01-28 20:36:00,31.3,22.0,30.34,East,96,2.0,3.0,68,0.00,,,0.00,Wunderground v.1.15,2013-01-29 04:36:00,
2013-01-28 20:42:00,31.5,22.5,30.34,East,96,1.0,2.0,69,0.00,,,0.00,Wunderground v.1.15,2013-01-29 04:42:00,
2013-01-28 20:48:00,31.5,22.5,30.34,East,99,3.0,6.0,69,0.00,,,0.00,Wunderground v.1.15,2013-01-29 04:48:00,
2013-01-28 20:54:00,31.6,22.6,30.34,ESE,102,4.0,4.0,69,0.00,,,0.00,Wunderground v.1.15,2013-01-29 04:54:00,
2013-01-28 21:32:00,32.2,22.5,30.31,SE,130,2.0,2.0,67,0.00,,,0.00,Wunderground v.1.15,2013-01-29 05:32:00,
2013-01-28 21:34:00,32.2,22.5,30.31,SE,130,1.0,2.0,67,0.00,,,0.00,Wunderground v.1.15,2013-01-29 05:34:00,
2013-01-28 21:36:00,32.4,22.7,30.31,SE,130,0.0,2.0,67,0.00,,,0.00,Wunderground v.1.15,2013-01-29 05:36:00,
2013-01-28 21:42:00,32.4,22.3,30.31,South,169,1.0,4.0,66,0.00,,,0.00,Wunderground v.1.15,2013-01-29 05:42:00,
2013-01-28 21:48:00,32.5,22.4,30.31,SSE,147,1.0,4.0,66,0.00,,,0.00,Wunderground v.1.15,2013-01-29 05:48:00,
2013-01-28 21:54:00,32.7,22.2,30.31,ESE,106,2.0,6.0,65,0.00,,,0.00,Wunderground v.1.15,2013-01-29 05:54:00,
2013-01-28 22:00:00,32.8,22.3,30.30,SE,144,2.0,2.0,65,0.00,,,0.00,Wunderground v.1.15,2013-01-29 06:00:00,
2013-01-28 22:06:00,32.8,22.3,30.30,SE,133,0.0,2.0,65,0.00,,,0.00,Wunderground v.1.15,2013-01-29 06:06:00,
2013-01-28 22:12:00,32.8,22.7,30.30,ESE,120,1.0,1.0,66,0.00,,,0.00,Wunderground v.1.15,2013-01-29 06:12:00,
2013-01-28 22:18:00,32.7,22.9,30.28,ESE,119,1.0,1.0,67,0.00,,,0.00,Wunderground v.1.15,2013-01-29 06:18:00,
2013-01-28 22:24:00,32.5,22.8,30.28,ESE,119,0.0,0.0,67,0.00,,,0.00,Wunderground v.1.15,2013-01-29 06:24:00,
2013-01-28 22:30:00,32.5,23.1,30.28,ESE,119,0.0,0.0,68,0.00,,,0.00,Wunderground v.1.15,2013-01-29 06:30:00,
2013-01-28 22:36:00,32.5,23.1,30.28,ESE,119,0.0,0.0,68,0.00,,,0.00,Wunderground v.1.15,2013-01-29 06:36:00,
2013-01-28 22:42:00,32.4,23.4,30.28,ESE,113,0.0,0.0,69,0.00,,,0.00,Wunderground v.1.15,2013-01-29 06:42:00,
2013-01-28 22:48:00,32.5,23.1,30.30,West,260,0.0,0.0,68,0.00,,,0.00,Wunderground v.1.15,2013-01-29 06:48:00,
2013-01-28 22:54:00,32.5,22.8,30.30,WNW,287,0.0,2.0,67,0.00,,,0.00,Wunderground v.1.15,2013-01-29 06:54:00,
2013-01-28 23:00:00,32.5,22.4,30.28,North,4,0.0,0.0,66,0.00,,,0.00,Wunderground v.1.15,2013-01-29 07:00:00,
2013-01-28 23:06:00,32.5,23.1,30.28,North,0,0.0,0.0,68,0.00,,,0.00,Wunderground v.1.15,2013-01-29 07:06:00,
2013-01-28 23:12:00,32.4,23.4,30.28,North,0,0.0,0.0,69,0.00,,,0.00,Wunderground v.1.15,2013-01-29 07:12:00,
2013-01-28 23:18:00,32.2,23.5,30.27,North,0,0.0,0.0,70,0.00,,,0.00,Wunderground v.1.15,2013-01-29 07:18:00,
2013-01-28 23:24:00,32.2,24.2,30.27,North,0,0.0,1.0,72,0.00,,,0.00,Wunderground v.1.15,2013-01-29 07:24:00,
2013-01-28 23:30:00,32.1,24.4,30.27,North,0,0.0,0.0,73,0.00,,,0.00,Wunderground v.1.15,2013-01-29 07:30:00,
2013-01-28 23:36:00,31.9,24.2,30.28,North,0,0.0,0.0,73,0.00,,,0.00,Wunderground v.1.15,2013-01-29 07:36:00,
2013-01-28 23:42:00,31.9,24.6,30.28,North,0,0.0,0.0,74,0.00,,,0.00,Wunderground v.1.15,2013-01-29 07:42:00,
2013-01-28 23:48:00,31.9,24.9,30.26,North,0,0.0,0.0,75,0.00,,,0.00,Wunderground v.1.15,2013-01-29 07:48:00,
2013-01-28 23:54:00,31.8,24.8,30.26,North,0,0.0,0.0,75,0.00,,,0.00,Wunderground v.1.15,2013-01-29 07:54:00,